Time;durP1;ratioP1;P1;durP2;ratioP2;P2;SDS_P1;SDS_P2;PMS_P1;PMS_P2;Temp;Humidity;BMP_temperature;BMP_pressure;BME280_temperature;BME280_humidity;BME280_pressure;Samples;Min_cycle;Max_cycle;Signal;HPM_P1;HPM_P2
2023/08/22 00:01:07;;;;;;;8.57;8.03;;;;;;;;;;5045658;28;21007;-85
2023/08/22 00:03:33;;;;;;;8.50;8.00;;;;;;;;;;5041078;28;20810;-82
2023/08/22 00:05:59;;;;;;;9.10;8.50;;;;;;;;;;5043972;28;20445;-81
2023/08/22 00:08:25;;;;;;;9.80;8.93;;;;;;;;;;5040985;28;20476;-83
2023/08/22 00:10:51;;;;;;;9.30;8.60;;;;;;;;;;5044819;28;20498;-82
2023/08/22 00:13:17;;;;;;;8.77;8.10;;;;;;;;;;5039806;28;20441;-84
2023/08/22 00:15:43;;;;;;;10.13;9.53;;;;;;;;;;5042541;28;20452;-82
2023/08/22 00:18:09;;;;;;;9.93;8.97;;;;;;;;;;5040232;28;20446;-83
2023/08/22 00:20:36;;;;;;;9.37;8.50;;;;;;;;;;5043218;28;20438;-83
2023/08/22 00:23:03;;;;;;;8.20;7.80;;;;;;;;;;5039822;28;20434;-83
2023/08/22 00:25:29;;;;;;;10.53;8.50;;;;;;;;;;5043433;28;20499;-84
2023/08/22 00:27:55;;;;;;;9.13;8.40;;;;;;;;;;5043886;28;20571;-83
2023/08/22 00:30:21;;;;;;;10.60;9.70;;;;;;;;;;5042308;28;20438;-82
2023/08/22 00:32:47;;;;;;;9.10;8.40;;;;;;;;;;5035029;28;20472;-82
2023/08/22 00:35:13;;;;;;;8.87;8.37;;;;;;;;;;5039852;28;20845;-84
2023/08/22 00:37:39;;;;;;;9.93;9.23;;;;;;;;;;5043768;28;20532;-84
2023/08/22 00:40:06;;;;;;;10.20;9.30;;;;;;;;;;5043268;28;20552;-82
2023/08/22 00:42:32;;;;;;;8.80;8.23;;;;;;;;;;5040969;28;20449;-84
2023/08/22 00:44:58;;;;;;;8.33;7.77;;;;;;;;;;5042220;28;20850;-84
2023/08/22 00:47:25;;;;;;;8.93;8.40;;;;;;;;;;5043168;28;20452;-82
2023/08/22 00:49:51;;;;;;;10.83;9.00;;;;;;;;;;5043274;28;20426;-84
2023/08/22 00:52:17;;;;;;;8.70;7.90;;;;;;;;;;5039909;28;20976;-83
2023/08/22 00:54:43;;;;;;;9.30;8.50;;;;;;;;;;5042099;28;20452;-84
2023/08/22 00:57:10;;;;;;;9.90;9.30;;;;;;;;;;5044283;28;20931;-83
2023/08/22 00:59:36;;;;;;;10.47;9.10;;;;;;;;;;5044841;28;21008;-83
2023/08/22 01:02:02;;;;;;;9.63;8.83;;;;;;;;;;5039057;28;20449;-83
2023/08/22 01:04:28;;;;;;;8.53;8.03;;;;;;;;;;5037085;28;20427;-84
2023/08/22 01:06:54;;;;;;;9.33;8.70;;;;;;;;;;5037480;28;20939;-84
2023/08/22 01:09:28;;;;;;;8.97;8.50;;;;;;;;;;5036410;28;20491;-84
2023/08/22 01:11:58;;;;;;;10.30;9.50;;;;;;;;;;5032526;28;20488;-84
2023/08/22 01:14:27;;;;;;;8.50;7.93;;;;;;;;;;5039100;28;20422;-83
2023/08/22 01:16:53;;;;;;;10.90;9.17;;;;;;;;;;5040129;28;20434;-85
2023/08/22 01:19:20;;;;;;;9.00;8.37;;;;;;;;;;5049671;28;20473;-85
2023/08/22 01:21:49;;;;;;;8.67;8.17;;;;;;;;;;5036863;28;20445;-83
2023/08/22 01:24:15;;;;;;;9.60;8.67;;;;;;;;;;5041948;28;20437;-82
2023/08/22 01:26:41;;;;;;;10.50;9.77;;;;;;;;;;5042225;28;20492;-83
2023/08/22 01:29:10;;;;;;;10.33;9.50;;;;;;;;;;5041786;28;20437;-83
2023/08/22 01:31:43;;;;;;;10.67;9.90;;;;;;;;;;5038175;28;21032;-85
2023/08/22 01:34:14;;;;;;;9.77;9.10;;;;;;;;;;5042725;28;20867;-85
2023/08/22 01:36:40;;;;;;;11.23;9.47;;;;;;;;;;5041605;28;20441;-84
2023/08/22 01:39:07;;;;;;;10.77;9.97;;;;;;;;;;5041822;28;20523;-84
2023/08/22 01:41:34;;;;;;;10.07;9.33;;;;;;;;;;5037975;28;20465;-84
2023/08/22 01:44:02;;;;;;;11.60;9.27;;;;;;;;;;5041973;28;20452;-84
2023/08/22 01:46:28;;;;;;;9.73;9.10;;;;;;;;;;5041065;28;20441;-84
2023/08/22 01:48:54;;;;;;;8.10;7.50;;;;;;;;;;5041122;28;20475;-86
2023/08/22 01:51:20;;;;;;;9.23;8.70;;;;;;;;;;5036887;28;20449;-84
2023/08/22 01:53:46;;;;;;;8.17;7.57;;;;;;;;;;5035235;28;20829;-83
2023/08/22 01:56:12;;;;;;;9.23;8.60;;;;;;;;;;5040758;28;20963;-84
2023/08/22 01:58:38;;;;;;;9.33;8.60;;;;;;;;;;5043247;28;20461;-84
2023/08/22 02:01:11;;;;;;;8.30;7.57;;;;;;;;;;5038723;28;21252;-84
2023/08/22 02:03:37;;;;;;;10.10;9.20;;;;;;;;;;5042510;28;20457;-84
2023/08/22 02:06:03;;;;;;;9.00;8.40;;;;;;;;;;5040619;28;20445;-84
2023/08/22 02:08:29;;;;;;;8.90;8.33;;;;;;;;;;5037563;28;20843;-85
2023/08/22 02:10:55;;;;;;;9.00;8.40;;;;;;;;;;5032842;28;20633;-84
2023/08/22 02:13:21;;;;;;;8.30;7.67;;;;;;;;;;5042489;28;20447;-83
2023/08/22 02:15:47;;;;;;;8.23;7.80;;;;;;;;;;5040313;28;20437;-84
2023/08/22 02:18:14;;;;;;;8.30;7.77;;;;;;;;;;5042189;28;20433;-83
2023/08/22 02:20:40;;;;;;;8.00;7.30;;;;;;;;;;5036371;28;20448;-84
2023/08/22 02:23:06;;;;;;;8.40;7.87;;;;;;;;;;5041587;28;20503;-82
2023/08/22 02:25:32;;;;;;;8.47;8.00;;;;;;;;;;5039857;28;20445;-82
2023/08/22 02:27:59;;;;;;;8.33;7.80;;;;;;;;;;5042707;28;20445;-82
2023/08/22 02:30:25;;;;;;;7.70;7.40;;;;;;;;;;5037790;28;20446;-81
2023/08/22 02:32:51;;;;;;;8.73;8.13;;;;;;;;;;5041592;28;20436;-83
2023/08/22 02:35:17;;;;;;;8.80;8.20;;;;;;;;;;5041195;28;20460;-82
2023/08/22 02:37:43;;;;;;;9.90;9.40;;;;;;;;;;5040374;28;20585;-82
2023/08/22 02:40:09;;;;;;;11.80;10.83;;;;;;;;;;5036566;28;21093;-82
2023/08/22 02:42:38;;;;;;;11.80;11.00;;;;;;;;;;5038339;28;21167;-82
2023/08/22 02:45:05;;;;;;;11.73;10.93;;;;;;;;;;5042187;28;20445;-81
2023/08/22 02:47:31;;;;;;;11.60;10.70;;;;;;;;;;5040905;28;20520;-83
2023/08/22 02:49:57;;;;;;;13.10;12.03;;;;;;;;;;5039569;28;20473;-83
2023/08/22 02:52:24;;;;;;;11.80;10.77;;;;;;;;;;5042268;28;20935;-83
2023/08/22 02:54:50;;;;;;;11.47;10.57;;;;;;;;;;5037967;28;20445;-83
2023/08/22 02:57:16;;;;;;;12.70;11.70;;;;;;;;;;5043207;28;20489;-83
2023/08/22 02:59:42;;;;;;;13.23;12.10;;;;;;;;;;5038978;28;20476;-82
2023/08/22 03:02:08;;;;;;;11.90;11.07;;;;;;;;;;5042481;28;20441;-83
2023/08/22 03:04:37;;;;;;;11.27;10.37;;;;;;;;;;5041474;28;20456;-83
2023/08/22 03:07:03;;;;;;;10.27;9.47;;;;;;;;;;5042356;28;20483;-83
2023/08/22 03:09:30;;;;;;;9.27;8.60;;;;;;;;;;5039789;28;20448;-82
2023/08/22 03:11:55;;;;;;;9.27;8.57;;;;;;;;;;5039231;28;20441;-84
2023/08/22 03:14:22;;;;;;;9.07;8.27;;;;;;;;;;5041747;28;20507;-83
2023/08/22 03:16:47;;;;;;;11.07;9.57;;;;;;;;;;5041167;28;20447;-82
2023/08/22 03:19:13;;;;;;;9.30;8.70;;;;;;;;;;5042596;28;20461;-85
2023/08/22 03:21:39;;;;;;;10.33;9.67;;;;;;;;;;5037430;28;20972;-83
2023/08/22 03:24:06;;;;;;;8.70;8.10;;;;;;;;;;5040651;28;20436;-82
2023/08/22 03:26:31;;;;;;;8.23;7.73;;;;;;;;;;5030206;28;20477;-83
2023/08/22 03:28:57;;;;;;;9.10;8.30;;;;;;;;;;5041687;28;20446;-84
2023/08/22 03:31:26;;;;;;;9.40;8.70;;;;;;;;;;5036155;28;20498;-82
2023/08/22 03:33:52;;;;;;;10.73;9.73;;;;;;;;;;5042643;28;20418;-83
2023/08/22 03:36:18;;;;;;;11.80;11.00;;;;;;;;;;5045105;28;20430;-82
2023/08/22 03:38:46;;;;;;;10.07;9.40;;;;;;;;;;5041857;28;20514;-83
2023/08/22 03:41:12;;;;;;;8.77;8.17;;;;;;;;;;5044662;28;21231;-83
2023/08/22 03:43:39;;;;;;;9.10;8.10;;;;;;;;;;5039993;28;21134;-83
2023/08/22 03:46:05;;;;;;;9.57;8.70;;;;;;;;;;5038676;28;20438;-83
2023/08/22 03:48:31;;;;;;;11.27;9.07;;;;;;;;;;5039444;28;20802;-83
2023/08/22 03:50:57;;;;;;;9.43;8.70;;;;;;;;;;5043232;28;20429;-83
2023/08/22 03:53:23;;;;;;;8.37;7.87;;;;;;;;;;5042724;28;20449;-83
2023/08/22 03:55:49;;;;;;;9.60;8.90;;;;;;;;;;5047078;28;20411;-83
2023/08/22 03:58:15;;;;;;;9.27;8.60;;;;;;;;;;5038735;28;20448;-83
2023/08/22 04:00:41;;;;;;;11.07;9.70;;;;;;;;;;5036800;28;20484;-83
2023/08/22 04:03:07;;;;;;;8.70;8.17;;;;;;;;;;5044513;28;20739;-85
2023/08/22 04:05:33;;;;;;;8.80;8.13;;;;;;;;;;5042354;28;20731;-83
2023/08/22 04:07:59;;;;;;;9.93;9.33;;;;;;;;;;5042272;28;20456;-85
2023/08/22 04:10:25;;;;;;;9.40;8.70;;;;;;;;;;5043904;28;21222;-85
2023/08/22 04:12:51;;;;;;;10.13;9.43;;;;;;;;;;5042952;28;20440;-83
2023/08/22 04:15:17;;;;;;;9.50;8.80;;;;;;;;;;5044179;28;20457;-83
2023/08/22 04:17:43;;;;;;;8.43;7.93;;;;;;;;;;5044872;28;20451;-82
2023/08/22 04:20:10;;;;;;;9.27;8.60;;;;;;;;;;5039039;28;20466;-82
2023/08/22 04:22:37;;;;;;;8.87;8.40;;;;;;;;;;5041244;28;20425;-83
2023/08/22 04:25:04;;;;;;;8.67;8.20;;;;;;;;;;5038377;28;20578;-81
2023/08/22 04:27:30;;;;;;;9.70;8.93;;;;;;;;;;5038986;28;20452;-84
2023/08/22 04:29:56;;;;;;;9.23;8.63;;;;;;;;;;5043721;28;20798;-82
2023/08/22 04:32:22;;;;;;;8.60;8.13;;;;;;;;;;5043745;28;20446;-83
2023/08/22 04:34:49;;;;;;;12.00;9.63;;;;;;;;;;5041006;28;20882;-82
2023/08/22 04:37:15;;;;;;;9.53;8.83;;;;;;;;;;5037457;28;20437;-82
2023/08/22 04:39:41;;;;;;;10.37;9.47;;;;;;;;;;5031709;28;21635;-82
2023/08/22 04:42:07;;;;;;;9.43;8.80;;;;;;;;;;5039448;28;20511;-82
2023/08/22 04:44:33;;;;;;;9.50;8.70;;;;;;;;;;5039994;28;20456;-83
2023/08/22 04:46:59;;;;;;;9.53;9.03;;;;;;;;;;5055844;28;20422;-82
2023/08/22 04:49:25;;;;;;;9.03;8.13;;;;;;;;;;5042042;28;20470;-82
2023/08/22 04:51:51;;;;;;;8.03;7.63;;;;;;;;;;5044168;28;20479;-82
2023/08/22 04:54:17;;;;;;;9.43;8.53;;;;;;;;;;5040559;28;21184;-84
2023/08/22 04:56:43;;;;;;;9.57;8.93;;;;;;;;;;5041170;28;20453;-82
2023/08/22 04:59:09;;;;;;;12.93;10.77;;;;;;;;;;5040159;28;20525;-82
2023/08/22 05:01:35;;;;;;;11.20;10.50;;;;;;;;;;5042650;28;20467;-82
2023/08/22 05:04:01;;;;;;;11.70;10.60;;;;;;;;;;5040626;28;20483;-83
2023/08/22 05:06:27;;;;;;;11.27;10.47;;;;;;;;;;5044854;28;20424;-82
2023/08/22 05:08:52;;;;;;;9.80;9.10;;;;;;;;;;5038095;28;20438;-82
2023/08/22 05:11:18;;;;;;;8.23;7.70;;;;;;;;;;5045532;28;20445;-82
2023/08/22 05:13:44;;;;;;;10.73;8.17;;;;;;;;;;5044058;28;20430;-82
2023/08/22 05:16:10;;;;;;;9.27;8.57;;;;;;;;;;5043999;28;20415;-81
2023/08/22 05:18:36;;;;;;;8.97;8.47;;;;;;;;;;5053219;28;20500;-82
2023/08/22 05:21:02;;;;;;;8.40;7.70;;;;;;;;;;5054591;28;20426;-82
2023/08/22 05:23:28;;;;;;;8.80;8.10;;;;;;;;;;5043944;28;20438;-84
2023/08/22 05:25:54;;;;;;;9.40;8.60;;;;;;;;;;5036498;28;20458;-82
2023/08/22 05:28:20;;;;;;;8.20;7.70;;;;;;;;;;5034008;28;20484;-83
2023/08/22 05:30:49;;;;;;;8.63;7.93;;;;;;;;;;5044525;28;20433;-83
2023/08/22 05:33:15;;;;;;;8.90;8.30;;;;;;;;;;5038323;28;20475;-82
2023/08/22 05:35:41;;;;;;;8.47;8.00;;;;;;;;;;5040848;28;20976;-84
2023/08/22 05:38:07;;;;;;;8.33;7.73;;;;;;;;;;5039393;28;20434;-83
2023/08/22 05:40:33;;;;;;;8.03;7.63;;;;;;;;;;5041316;28;20442;-83
2023/08/22 05:42:59;;;;;;;8.53;7.83;;;;;;;;;;5042871;28;20631;-82
2023/08/22 05:45:25;;;;;;;7.20;6.80;;;;;;;;;;5039732;28;20453;-83
2023/08/22 05:47:51;;;;;;;7.70;7.20;;;;;;;;;;5042377;28;20472;-81
2023/08/22 05:50:17;;;;;;;6.93;6.53;;;;;;;;;;5044580;28;20925;-80
2023/08/22 05:52:43;;;;;;;6.67;6.33;;;;;;;;;;5046134;28;20814;-82
2023/08/22 05:55:09;;;;;;;7.67;6.73;;;;;;;;;;5039910;28;20468;-82
2023/08/22 05:57:36;;;;;;;10.90;6.93;;;;;;;;;;5049583;28;20414;-80
2023/08/22 06:00:05;;;;;;;7.07;6.47;;;;;;;;;;5038712;28;20474;-83
2023/08/22 06:02:31;;;;;;;6.20;5.70;;;;;;;;;;5036860;28;20438;-83
2023/08/22 06:04:57;;;;;;;6.77;6.10;;;;;;;;;;5031283;28;20736;-81
2023/08/22 06:07:23;;;;;;;6.37;6.10;;;;;;;;;;5038826;28;20454;-82
2023/08/22 06:09:49;;;;;;;7.00;6.30;;;;;;;;;;5035814;28;20484;-83
2023/08/22 06:12:24;;;;;;;6.60;6.13;;;;;;;;;;5039509;28;20562;-83
2023/08/22 06:14:50;;;;;;;7.27;6.53;;;;;;;;;;5036855;28;20433;-82
2023/08/22 06:17:16;;;;;;;6.60;6.20;;;;;;;;;;5035567;28;21001;-82
2023/08/22 06:19:42;;;;;;;8.10;6.00;;;;;;;;;;5038676;28;20560;-86
2023/08/22 06:22:08;;;;;;;7.00;6.50;;;;;;;;;;5042299;28;20431;-83
2023/08/22 06:24:34;;;;;;;8.20;5.97;;;;;;;;;;5037047;28;20446;-82
2023/08/22 06:27:00;;;;;;;5.90;5.40;;;;;;;;;;5041765;28;20450;-84
2023/08/22 06:29:28;;;;;;;5.70;5.30;;;;;;;;;;5049144;28;21155;-84
2023/08/22 06:32:01;;;;;;;6.13;5.73;;;;;;;;;;5042790;28;20457;-85
2023/08/22 06:34:27;;;;;;;6.27;6.07;;;;;;;;;;5044541;28;20433;-85
2023/08/22 06:36:56;;;;;;;5.87;5.57;;;;;;;;;;5050604;28;20489;-84
2023/08/22 06:39:23;;;;;;;5.20;4.90;;;;;;;;;;5047208;28;20465;-88
2023/08/22 06:41:49;;;;;;;5.40;4.90;;;;;;;;;;5043032;28;20453;-85
2023/08/22 06:44:15;;;;;;;5.50;5.10;;;;;;;;;;5042968;28;20438;-84
2023/08/22 06:46:50;;;;;;;5.90;5.30;;;;;;;;;;5044621;28;20438;-83
2023/08/22 06:49:16;;;;;;;5.20;5.00;;;;;;;;;;5043673;28;20476;-84
2023/08/22 06:51:42;;;;;;;4.77;4.50;;;;;;;;;;5041310;28;20430;-84
2023/08/22 06:54:08;;;;;;;6.60;5.97;;;;;;;;;;5043890;28;20506;-85
2023/08/22 06:56:34;;;;;;;6.27;5.67;;;;;;;;;;5047336;28;20511;-83
2023/08/22 06:59:00;;;;;;;5.73;5.43;;;;;;;;;;5046474;28;20721;-83
2023/08/22 07:01:26;;;;;;;5.43;5.13;;;;;;;;;;5044465;28;20457;-85
2023/08/22 07:03:52;;;;;;;6.27;5.87;;;;;;;;;;5047421;28;20506;-84
2023/08/22 07:06:18;;;;;;;5.20;5.00;;;;;;;;;;5045745;28;20464;-81
2023/08/22 07:08:44;;;;;;;6.80;6.20;;;;;;;;;;5044075;28;20473;-83
2023/08/22 07:11:10;;;;;;;6.33;5.40;;;;;;;;;;5044024;28;20450;-84
2023/08/22 07:13:37;;;;;;;6.20;5.80;;;;;;;;;;5033909;28;20441;-82
2023/08/22 07:16:03;;;;;;;6.40;6.07;;;;;;;;;;5050956;28;20444;-82
2023/08/22 07:18:29;;;;;;;7.03;6.63;;;;;;;;;;5040334;28;20445;-83
2023/08/22 07:20:55;;;;;;;7.80;7.30;;;;;;;;;;5033893;28;20889;-82
2023/08/22 07:23:21;;;;;;;7.50;6.90;;;;;;;;;;5038016;28;20449;-83
2023/08/22 07:25:48;;;;;;;6.57;6.27;;;;;;;;;;5043409;28;20449;-82
2023/08/22 07:28:14;;;;;;;6.23;5.93;;;;;;;;;;5037481;28;20462;-84
2023/08/22 07:30:40;;;;;;;8.13;7.33;;;;;;;;;;5044737;28;20421;-84
2023/08/22 07:33:06;;;;;;;6.47;6.03;;;;;;;;;;5044444;28;20438;-85
2023/08/22 07:35:35;;;;;;;7.93;7.23;;;;;;;;;;5047041;28;20473;-83
2023/08/22 07:38:01;;;;;;;7.40;6.90;;;;;;;;;;5048266;28;20503;-83
2023/08/22 07:40:27;;;;;;;7.13;6.67;;;;;;;;;;5043735;28;20473;-83
2023/08/22 07:42:54;;;;;;;7.20;6.50;;;;;;;;;;5042357;28;20854;-82
2023/08/22 07:45:20;;;;;;;7.40;6.90;;;;;;;;;;5040913;28;20892;-82
2023/08/22 07:47:46;;;;;;;7.40;6.70;;;;;;;;;;5040146;28;20476;-84
2023/08/22 07:50:12;;;;;;;6.73;6.10;;;;;;;;;;5044037;28;20465;-83
2023/08/22 07:52:38;;;;;;;6.80;6.23;;;;;;;;;;5043150;28;20469;-81
2023/08/22 07:55:04;;;;;;;6.17;5.67;;;;;;;;;;5030676;28;20437;-81
2023/08/22 07:57:31;;;;;;;7.50;7.20;;;;;;;;;;5039603;28;20460;-81
2023/08/22 07:59:57;;;;;;;5.60;5.30;;;;;;;;;;5041298;28;20465;-83
2023/08/22 08:02:23;;;;;;;6.20;6.00;;;;;;;;;;5043137;28;20440;-83
2023/08/22 08:04:49;;;;;;;5.00;4.80;;;;;;;;;;5037698;28;20551;-84
2023/08/22 08:07:15;;;;;;;5.17;4.53;;;;;;;;;;5037585;28;20505;-80
2023/08/22 08:09:41;;;;;;;4.43;3.97;;;;;;;;;;5038466;28;20536;-82
2023/08/22 08:12:07;;;;;;;5.70;5.30;;;;;;;;;;5039210;28;20434;-81
2023/08/22 08:14:33;;;;;;;8.50;7.33;;;;;;;;;;5042749;28;20422;-83
2023/08/22 08:17:02;;;;;;;3.90;3.70;;;;;;;;;;5041542;28;20445;-81
2023/08/22 08:19:28;;;;;;;5.13;3.53;;;;;;;;;;5040128;28;20461;-83
2023/08/22 08:21:54;;;;;;;4.67;4.27;;;;;;;;;;5037948;28;20468;-80
2023/08/22 08:24:20;;;;;;;7.60;5.53;;;;;;;;;;5048393;28;21068;-83
2023/08/22 08:26:46;;;;;;;4.47;4.20;;;;;;;;;;5043771;28;20449;-82
2023/08/22 08:29:12;;;;;;;3.90;3.70;;;;;;;;;;5044960;28;20411;-82
2023/08/22 08:31:38;;;;;;;3.97;3.67;;;;;;;;;;5045130;28;20464;-82
2023/08/22 08:34:04;;;;;;;3.90;3.70;;;;;;;;;;5058019;28;20421;-82
2023/08/22 08:36:30;;;;;;;6.40;4.10;;;;;;;;;;5038012;28;20456;-81
2023/08/22 08:38:56;;;;;;;11.40;6.37;;;;;;;;;;5038015;28;20461;-80
2023/08/22 08:41:23;;;;;;;4.43;4.10;;;;;;;;;;5037769;28;20456;-83
2023/08/22 08:43:49;;;;;;;6.37;5.07;;;;;;;;;;5035750;28;20444;-84
2023/08/22 08:46:16;;;;;;;4.90;4.47;;;;;;;;;;5036939;28;20448;-82
2023/08/22 08:48:42;;;;;;;5.63;4.57;;;;;;;;;;5037715;28;21197;-81
2023/08/22 08:51:09;;;;;;;4.07;3.87;;;;;;;;;;5037972;28;20976;-82
2023/08/22 08:53:37;;;;;;;7.80;4.60;;;;;;;;;;5033851;28;20972;-82
2023/08/22 08:56:06;;;;;;;7.03;5.00;;;;;;;;;;5031243;28;20461;-80
2023/08/22 08:58:32;;;;;;;5.67;5.17;;;;;;;;;;5033745;28;21183;-80
2023/08/22 09:01:00;;;;;;;6.13;5.73;;;;;;;;;;5029919;28;20441;-80
2023/08/22 09:03:26;;;;;;;5.60;5.20;;;;;;;;;;5032676;28;20444;-84
2023/08/22 09:05:52;;;;;;;5.47;4.97;;;;;;;;;;5033113;28;20437;-81
2023/08/22 09:08:18;;;;;;;6.63;6.00;;;;;;;;;;5033661;28;20441;-85
2023/08/22 09:10:54;;;;;;;8.87;5.70;;;;;;;;;;5032416;28;20932;-79
2023/08/22 09:13:26;;;;;;;6.80;6.30;;;;;;;;;;5036462;28;20445;-81
2023/08/22 09:15:58;;;;;;;6.67;6.17;;;;;;;;;;5035042;28;20458;-82
2023/08/22 09:18:24;;;;;;;6.83;6.40;;;;;;;;;;5034947;28;20802;-82
2023/08/22 09:20:50;;;;;;;6.87;6.37;;;;;;;;;;5031392;28;20457;-80
2023/08/22 09:23:20;;;;;;;6.50;5.97;;;;;;;;;;5028970;28;20950;-82
2023/08/22 09:25:46;;;;;;;5.30;4.80;;;;;;;;;;5031299;28;20438;-82
2023/08/22 09:28:12;;;;;;;7.40;6.80;;;;;;;;;;5035283;28;20506;-83
2023/08/22 09:30:46;;;;;;;6.23;5.87;;;;;;;;;;5029622;28;20478;-82
2023/08/22 09:33:15;;;;;;;6.63;6.10;;;;;;;;;;5031121;28;20517;-82
2023/08/22 09:35:41;;;;;;;5.93;5.40;;;;;;;;;;5034298;28;20438;-83
2023/08/22 09:38:08;;;;;;;5.93;5.63;;;;;;;;;;5032529;28;20442;-83
2023/08/22 09:40:34;;;;;;;7.57;5.77;;;;;;;;;;5034914;28;20501;-83
2023/08/22 09:43:02;;;;;;;4.67;4.43;;;;;;;;;;5036845;28;20448;-81
2023/08/22 09:45:31;;;;;;;5.73;5.07;;;;;;;;;;5031828;28;20445;-81
2023/08/22 09:48:00;;;;;;;7.23;6.43;;;;;;;;;;5032908;28;20480;-83
2023/08/22 09:50:28;;;;;;;8.30;5.97;;;;;;;;;;5035302;28;20929;-82
2023/08/22 09:52:59;;;;;;;6.40;5.90;;;;;;;;;;5033341;28;20446;-82
2023/08/22 09:55:29;;;;;;;6.00;5.33;;;;;;;;;;5029824;28;20446;-84
2023/08/22 09:57:56;;;;;;;8.03;7.30;;;;;;;;;;5026961;28;20812;-81
2023/08/22 10:00:25;;;;;;;6.73;5.93;;;;;;;;;;5034008;28;20483;-80
2023/08/22 10:02:51;;;;;;;7.00;6.60;;;;;;;;;;5029096;28;20445;-84
2023/08/22 10:05:20;;;;;;;9.03;7.17;;;;;;;;;;5031539;28;20529;-79
2023/08/22 10:07:46;;;;;;;8.53;7.73;;;;;;;;;;5030055;28;20450;-81
2023/08/22 10:10:12;;;;;;;9.00;8.07;;;;;;;;;;5028390;28;20445;-82
2023/08/22 10:12:39;;;;;;;11.57;8.40;;;;;;;;;;5029749;28;20438;-81
2023/08/22 10:15:07;;;;;;;12.60;8.27;;;;;;;;;;5033840;28;20449;-80
2023/08/22 10:17:33;;;;;;;9.87;8.37;;;;;;;;;;5031184;28;20436;-80
2023/08/22 10:20:05;;;;;;;13.33;11.00;;;;;;;;;;5034689;28;20451;-82
2023/08/22 10:22:34;;;;;;;17.90;10.57;;;;;;;;;;5031913;28;20932;-81
2023/08/22 10:25:04;;;;;;;9.40;8.30;;;;;;;;;;5031286;28;20525;-81
2023/08/22 10:27:30;;;;;;;10.80;8.67;;;;;;;;;;5030984;28;20465;-83
2023/08/22 10:30:15;;;;;;;15.07;9.70;;;;;;;;;;5031274;28;21260;-80
2023/08/22 10:32:41;;;;;;;23.03;12.07;;;;;;;;;;5033326;28;20509;-80
2023/08/22 10:35:13;;;;;;;20.47;10.13;;;;;;;;;;5030612;28;20579;-80
2023/08/22 10:37:50;;;;;;;10.93;9.83;;;;;;;;;;5030623;28;20514;-81
2023/08/22 10:40:25;;;;;;;12.20;10.10;;;;;;;;;;5028007;28;20477;-80
2023/08/22 10:42:52;;;;;;;12.70;9.60;;;;;;;;;;5032103;28;20441;-81
2023/08/22 10:45:19;;;;;;;12.23;9.20;;;;;;;;;;5031287;28;20819;-79
2023/08/22 10:47:48;;;;;;;10.13;8.20;;;;;;;;;;5036227;28;20454;-80
2023/08/22 10:50:16;;;;;;;9.73;8.27;;;;;;;;;;5032963;28;20607;-80
2023/08/22 10:52:43;;;;;;;12.10;9.57;;;;;;;;;;5034560;28;20437;-78
2023/08/22 10:55:12;;;;;;;9.03;8.30;;;;;;;;;;5032539;28;20445;-80
2023/08/22 10:57:39;;;;;;;10.23;8.70;;;;;;;;;;5028250;28;20441;-80
2023/08/22 11:00:12;;;;;;;10.50;9.40;;;;;;;;;;5028394;28;20502;-84
2023/08/22 11:02:39;;;;;;;12.10;8.37;;;;;;;;;;5033880;28;20429;-80
2023/08/22 11:05:10;;;;;;;9.40;8.40;;;;;;;;;;5030725;28;20803;-80
2023/08/22 11:07:36;;;;;;;7.03;6.43;;;;;;;;;;5029324;28;20441;-80
2023/08/22 11:10:04;;;;;;;7.00;6.43;;;;;;;;;;5029517;28;20520;-79
2023/08/22 11:12:30;;;;;;;7.73;6.63;;;;;;;;;;5028745;28;20448;-81
2023/08/22 11:14:57;;;;;;;6.97;5.77;;;;;;;;;;5032607;28;20521;-81
2023/08/22 11:17:24;;;;;;;4.57;4.13;;;;;;;;;;5031055;28;20434;-80
2023/08/22 11:19:52;;;;;;;4.10;3.83;;;;;;;;;;5032210;28;20553;-80
2023/08/22 11:22:18;;;;;;;5.07;4.43;;;;;;;;;;5033879;28;20441;-79
2023/08/22 11:24:47;;;;;;;5.40;5.00;;;;;;;;;;5034280;28;20836;-79
2023/08/22 11:27:14;;;;;;;5.13;4.73;;;;;;;;;;5030118;28;21070;-79
2023/08/22 11:29:47;;;;;;;4.03;3.57;;;;;;;;;;5035105;28;20448;-85
2023/08/22 11:32:23;;;;;;;3.53;3.23;;;;;;;;;;5025646;28;20454;-84
2023/08/22 11:34:53;;;;;;;3.00;2.90;;;;;;;;;;5029386;28;20443;-82
2023/08/22 11:37:20;;;;;;;3.10;2.90;;;;;;;;;;5035682;28;20421;-81
2023/08/22 11:39:47;;;;;;;3.47;3.17;;;;;;;;;;5033599;28;20476;-80
2023/08/22 11:42:14;;;;;;;4.47;4.07;;;;;;;;;;5035933;28;21220;-83
2023/08/22 11:45:03;;;;;;;9.50;4.57;;;;;;;;;;5036085;28;20747;-81
2023/08/22 11:47:38;;;;;;;5.80;4.97;;;;;;;;;;5023079;28;20449;-81
2023/08/22 11:50:05;;;;;;;4.17;3.87;;;;;;;;;;5030439;28;20468;-82
2023/08/22 11:52:31;;;;;;;4.10;3.90;;;;;;;;;;5032291;28;20447;-78
2023/08/22 11:55:07;;;;;;;4.27;3.97;;;;;;;;;;5029368;28;20438;-79
2023/08/22 11:57:35;;;;;;;7.03;3.40;;;;;;;;;;5027164;28;20433;-83
2023/08/22 12:00:01;;;;;;;5.13;4.83;;;;;;;;;;5035640;28;20495;-81
2023/08/22 12:02:27;;;;;;;5.60;5.20;;;;;;;;;;5046027;28;20437;-81
2023/08/22 12:04:56;;;;;;;5.23;4.83;;;;;;;;;;5029829;28;20445;-82
2023/08/22 12:07:23;;;;;;;5.93;4.00;;;;;;;;;;5030741;28;20441;-82
2023/08/22 12:09:59;;;;;;;3.90;3.70;;;;;;;;;;5021035;28;20530;-81
2023/08/22 12:12:25;;;;;;;3.50;3.30;;;;;;;;;;5028607;28;20450;-81
2023/08/22 12:14:51;;;;;;;3.30;3.10;;;;;;;;;;5028704;28;20836;-80
2023/08/22 12:17:18;;;;;;;3.90;3.60;;;;;;;;;;5024044;28;20461;-83
2023/08/22 12:19:44;;;;;;;3.03;2.80;;;;;;;;;;5032858;28;20465;-77
2023/08/22 12:22:10;;;;;;;5.90;3.63;;;;;;;;;;5030801;28;20479;-81
2023/08/22 12:24:37;;;;;;;3.30;3.20;;;;;;;;;;5022597;28;20693;-79
2023/08/22 12:27:03;;;;;;;9.43;4.00;;;;;;;;;;5035932;28;20433;-82
2023/08/22 12:29:29;;;;;;;3.90;3.70;;;;;;;;;;5026811;28;20540;-80
2023/08/22 12:31:55;;;;;;;3.53;3.40;;;;;;;;;;5026630;28;20460;-81
2023/08/22 12:34:21;;;;;;;5.57;5.20;;;;;;;;;;5033531;28;20445;-82
2023/08/22 12:36:47;;;;;;;5.40;5.00;;;;;;;;;;5033582;28;20452;-82
2023/08/22 12:39:13;;;;;;;4.27;3.97;;;;;;;;;;5036813;28;20481;-82
2023/08/22 12:41:39;;;;;;;5.90;4.40;;;;;;;;;;5034389;28;20432;-83
2023/08/22 12:44:05;;;;;;;5.10;4.80;;;;;;;;;;5033309;28;20577;-84
2023/08/22 12:46:31;;;;;;;4.27;3.97;;;;;;;;;;5030913;28;20437;-85
2023/08/22 12:48:57;;;;;;;4.03;3.83;;;;;;;;;;5031446;28;20541;-82
2023/08/22 12:51:23;;;;;;;4.47;4.10;;;;;;;;;;5032906;28;21014;-85
2023/08/22 12:53:50;;;;;;;4.40;4.10;;;;;;;;;;5035090;28;20449;-83
2023/08/22 12:56:16;;;;;;;4.10;3.93;;;;;;;;;;5032719;28;20560;-83
2023/08/22 12:58:44;;;;;;;4.87;4.10;;;;;;;;;;5033583;28;20876;-82
2023/08/22 13:01:10;;;;;;;3.93;3.73;;;;;;;;;;5029623;28;20859;-84
2023/08/22 13:03:36;;;;;;;3.60;3.30;;;;;;;;;;5032315;28;20456;-84
2023/08/22 13:06:02;;;;;;;3.80;3.63;;;;;;;;;;5034456;28;20438;-83
2023/08/22 13:08:28;;;;;;;4.90;4.10;;;;;;;;;;5034927;28;20444;-84
2023/08/22 13:10:54;;;;;;;4.33;3.93;;;;;;;;;;5047166;28;20544;-84
2023/08/22 13:13:21;;;;;;;4.00;3.70;;;;;;;;;;5035468;28;20472;-84
2023/08/22 13:15:50;;;;;;;4.40;3.70;;;;;;;;;;5036980;28;23434;-82
2023/08/22 13:18:17;;;;;;;3.90;3.70;;;;;;;;;;5031232;28;21123;-82
2023/08/22 13:20:43;;;;;;;4.40;4.00;;;;;;;;;;5033183;28;20605;-82
2023/08/22 13:23:09;;;;;;;4.33;4.13;;;;;;;;;;5032468;28;20478;-83
2023/08/22 13:25:35;;;;;;;4.80;4.33;;;;;;;;;;5033439;28;20883;-83
2023/08/22 13:28:01;;;;;;;3.70;3.50;;;;;;;;;;5030939;28;20541;-81
2023/08/22 13:30:28;;;;;;;3.93;3.73;;;;;;;;;;5033944;28;21538;-84
2023/08/22 13:32:54;;;;;;;7.57;5.10;;;;;;;;;;5033053;28;20503;-85
2023/08/22 13:35:20;;;;;;;4.67;4.37;;;;;;;;;;5030905;28;20529;-84
2023/08/22 13:37:47;;;;;;;3.90;3.70;;;;;;;;;;5032850;28;20531;-84
2023/08/22 13:40:13;;;;;;;3.50;3.30;;;;;;;;;;5033583;28;20521;-83
2023/08/22 13:42:39;;;;;;;2.83;2.73;;;;;;;;;;5035803;28;21036;-85
2023/08/22 13:45:06;;;;;;;2.87;2.77;;;;;;;;;;5037048;28;20767;-86
2023/08/22 13:47:32;;;;;;;3.37;3.00;;;;;;;;;;5036573;28;20441;-85
2023/08/22 13:49:58;;;;;;;3.33;2.97;;;;;;;;;;5033603;28;20670;-83
2023/08/22 13:52:24;;;;;;;5.00;4.60;;;;;;;;;;5034241;28;20465;-81
2023/08/22 13:54:50;;;;;;;7.30;4.63;;;;;;;;;;5028470;28;20530;-83
2023/08/22 13:57:17;;;;;;;5.20;4.73;;;;;;;;;;5026443;28;20552;-84
2023/08/22 13:59:46;;;;;;;5.13;4.23;;;;;;;;;;5030559;28;20476;-86
2023/08/22 14:02:12;;;;;;;4.77;4.40;;;;;;;;;;5033296;28;20533;-81
2023/08/22 14:04:38;;;;;;;4.97;4.57;;;;;;;;;;5034392;28;20433;-84
2023/08/22 14:07:04;;;;;;;10.63;4.43;;;;;;;;;;5032108;28;20448;-81
2023/08/22 14:09:31;;;;;;;4.30;4.07;;;;;;;;;;5033518;28;20505;-82
2023/08/22 14:11:57;;;;;;;5.13;4.70;;;;;;;;;;5031990;28;20426;-83
2023/08/22 14:14:23;;;;;;;3.80;3.70;;;;;;;;;;5031080;28;20452;-84
2023/08/22 14:16:49;;;;;;;3.60;3.50;;;;;;;;;;5029945;28;20521;-83
2023/08/22 14:19:15;;;;;;;3.70;3.50;;;;;;;;;;5034562;28;20578;-85
2023/08/22 14:21:41;;;;;;;4.93;4.50;;;;;;;;;;5034756;28;20449;-82
2023/08/22 14:24:07;;;;;;;4.17;3.97;;;;;;;;;;5042196;28;20461;-86
2023/08/22 14:26:33;;;;;;;4.80;4.60;;;;;;;;;;5026750;28;20438;-85
2023/08/22 14:28:59;;;;;;;5.20;4.80;;;;;;;;;;5032831;28;20440;-85
2023/08/22 14:31:25;;;;;;;6.57;4.80;;;;;;;;;;5032159;28;20520;-85
2023/08/22 14:33:51;;;;;;;4.30;4.00;;;;;;;;;;5036696;28;20458;-82
2023/08/22 14:36:17;;;;;;;6.00;4.53;;;;;;;;;;5030704;28;20880;-84
2023/08/22 14:38:43;;;;;;;3.80;3.70;;;;;;;;;;5035585;28;20434;-86